createdAt,value
2023-03-20T00:02:06.782Z,9.78
2023-03-20T00:04:35.855Z,10.16
2023-03-20T00:07:05.658Z,10.16
2023-03-20T00:09:35.540Z,10.16
2023-03-20T00:12:02.728Z,9.93
2023-03-20T00:14:29.390Z,9.88
2023-03-20T00:16:55.914Z,9.94
2023-03-20T00:19:25.951Z,9.97
2023-03-20T00:21:54.948Z,10.12
2023-03-20T00:24:22.771Z,9.60
2023-03-20T00:26:51.313Z,9.43
2023-03-20T00:29:31.150Z,9.44
2023-03-20T00:31:58.463Z,9.46
2023-03-20T00:34:32.184Z,9.43
2023-03-20T00:37:00.200Z,9.38
2023-03-20T00:39:27.193Z,9.59
2023-03-20T00:42:06.024Z,9.85
2023-03-20T00:44:42.348Z,9.72
2023-03-20T00:47:16.907Z,9.42
2023-03-20T00:49:46.187Z,9.43
2023-03-20T00:52:12.810Z,9.39
2023-03-20T00:54:39.367Z,9.35
2023-03-20T00:57:18.004Z,9.44
2023-03-20T01:00:02.339Z,9.37
2023-03-20T01:02:29.893Z,9.30
2023-03-20T01:04:57.427Z,9.31
2023-03-20T01:07:26.679Z,9.38
2023-03-20T01:09:55.930Z,9.37
2023-03-20T01:12:22.737Z,9.35
2023-03-20T01:14:53.726Z,9.25
2023-03-20T01:17:23.061Z,9.28
2023-03-20T01:19:52.203Z,9.23
2023-03-20T01:22:18.928Z,9.43
2023-03-20T01:24:53.136Z,9.33
2023-03-20T01:27:20.957Z,9.12
2023-03-20T01:29:49.952Z,9.15
2023-03-20T01:32:19.153Z,9.27
2023-03-20T01:34:45.783Z,9.12
2023-03-20T01:37:17.073Z,9.08
2023-03-20T01:39:47.400Z,9.26
2023-03-20T01:42:18.548Z,9.37
2023-03-20T01:44:45.825Z,9.47
2023-03-20T01:47:18.117Z,9.30
2023-03-20T01:50:26.531Z,9.52
2023-03-20T01:53:07.391Z,9.48
2023-03-20T01:55:39.718Z,9.36
2023-03-20T01:58:11.349Z,9.44
2023-03-20T02:00:38.202Z,9.26
2023-03-20T02:03:07.573Z,9.22
2023-03-20T02:05:41.002Z,9.26
2023-03-20T02:08:32.750Z,9.30
2023-03-20T02:11:01.399Z,9.25
2023-03-20T02:13:30.327Z,9.39
2023-03-20T02:16:13.277Z,9.30
2023-03-20T02:18:44.103Z,9.20
2023-03-20T02:21:41.751Z,9.27
2023-03-20T02:24:27.008Z,9.47
2023-03-20T02:27:10.962Z,9.23
2023-03-20T02:29:56.193Z,9.33
2023-03-20T02:32:28.837Z,9.11
2023-03-20T02:35:22.935Z,9.04
2023-03-20T02:38:27.041Z,9.07
2023-03-20T02:41:22.686Z,9.09
2023-03-20T02:44:12.996Z,9.00
2023-03-20T02:47:01.980Z,9.13
2023-03-20T02:49:59.514Z,9.07
2023-03-20T02:52:38.448Z,8.97
2023-03-20T02:55:16.329Z,9.16
2023-03-20T02:57:58.550Z,9.12
2023-03-20T03:00:36.666Z,9.19
2023-03-20T03:03:14.784Z,8.91
2023-03-20T03:05:50.156Z,8.97
2023-03-20T03:08:18.344Z,9.12
2023-03-20T03:10:53.042Z,9.16
2023-03-20T03:13:31.093Z,9.07
2023-03-20T03:16:04.432Z,9.02
2023-03-20T03:18:34.764Z,9.04
2023-03-20T03:21:06.406Z,9.05
2023-03-20T03:23:40.206Z,9.09
2023-03-20T03:26:10.726Z,8.98
2023-03-20T03:28:46.139Z,9.01
2023-03-20T03:31:15.713Z,8.93
2023-03-20T03:33:46.979Z,8.88
2023-03-20T03:36:21.062Z,8.94
2023-03-20T03:39:15.488Z,8.98
2023-03-20T03:41:57.547Z,8.73
2023-03-20T03:44:37.143Z,8.23
2023-03-20T03:47:11.596Z,8.01
2023-03-20T03:49:42.693Z,8.25
2023-03-20T03:52:18.132Z,8.34
2023-03-20T03:54:49.492Z,8.25
2023-03-20T03:57:23.951Z,8.39
2023-03-20T03:59:52.965Z,8.23
2023-03-20T04:02:23.074Z,8.21
2023-03-20T04:04:54.000Z,8.38
2023-03-20T04:07:28.508Z,8.57
2023-03-20T04:09:57.574Z,8.16
2023-03-20T04:12:42.667Z,8.11
2023-03-20T04:15:09.622Z,8.20
2023-03-20T04:17:36.216Z,8.13
2023-03-20T04:20:04.109Z,8.10
2023-03-20T04:22:35.475Z,8.07
2023-03-20T04:25:04.115Z,8.04
2023-03-20T04:27:30.863Z,8.08
2023-03-20T04:29:57.570Z,8.06
2023-03-20T04:32:24.365Z,8.04
2023-03-20T04:34:52.179Z,8.08
2023-03-20T04:37:19.673Z,8.02
2023-03-20T04:39:48.520Z,8.06
2023-03-20T04:42:17.332Z,8.32
2023-03-20T04:44:46.376Z,8.30
2023-03-20T04:47:12.986Z,8.56
2023-03-20T04:49:39.522Z,8.35
2023-03-20T04:52:06.263Z,8.51
2023-03-20T04:54:32.921Z,8.60
2023-03-20T04:56:59.463Z,8.47
2023-03-20T04:59:26.106Z,8.56
2023-03-20T05:01:55.114Z,8.53
2023-03-20T05:04:24.220Z,8.51
2023-03-20T05:06:50.830Z,8.59
2023-03-20T05:09:19.620Z,8.52
2023-03-20T05:11:46.172Z,8.58
2023-03-20T05:14:12.733Z,8.35
2023-03-20T05:16:42.221Z,8.56
2023-03-20T05:19:08.883Z,8.37
2023-03-20T05:21:35.683Z,8.50
2023-03-20T05:24:02.281Z,8.60
2023-03-20T05:26:28.816Z,8.55
2023-03-20T05:28:55.545Z,8.54
2023-03-20T05:31:22.207Z,8.57
2023-03-20T05:33:48.822Z,8.65
2023-03-20T05:36:16.805Z,8.71
2023-03-20T05:38:43.484Z,8.63
2023-03-20T05:41:10.344Z,8.71
2023-03-20T05:43:39.165Z,8.67
2023-03-20T05:46:06.477Z,8.61
2023-03-20T05:48:35.496Z,8.80
2023-03-20T05:51:02.102Z,8.59
2023-03-20T05:53:28.665Z,8.58
2023-03-20T05:55:57.492Z,8.81
2023-03-20T05:58:24.214Z,8.81
2023-03-20T06:00:50.980Z,8.93
2023-03-20T06:03:22.591Z,8.88
2023-03-20T06:05:49.166Z,9.03
2023-03-20T06:08:18.074Z,9.14
2023-03-20T06:10:49.340Z,9.23
2023-03-20T06:13:18.476Z,9.14
2023-03-20T06:15:47.481Z,9.45
2023-03-20T06:18:14.115Z,9.38
2023-03-20T06:20:41.140Z,9.35
2023-03-20T06:23:08.378Z,9.59
2023-03-20T06:25:35.233Z,9.80
2023-03-20T06:28:05.007Z,9.80
2023-03-20T06:30:31.532Z,9.71
2023-03-20T06:32:58.401Z,9.85
2023-03-20T06:35:31.186Z,9.89
2023-03-20T06:38:01.277Z,9.99
2023-03-20T06:40:32.480Z,10.13
2023-03-20T06:43:03.918Z,10.31
2023-03-20T06:45:30.886Z,10.31
2023-03-20T06:47:57.463Z,10.22
2023-03-20T06:50:24.302Z,10.21
2023-03-20T06:52:56.526Z,10.43
2023-03-20T06:55:27.674Z,10.39
2023-03-20T06:57:54.239Z,10.56
2023-03-20T07:00:55.018Z,10.80
2023-03-20T07:07:14.484Z,10.99
2023-03-20T07:09:41.173Z,11.13
2023-03-20T07:12:14.561Z,11.04
2023-03-20T07:14:42.634Z,10.96
2023-03-20T07:17:12.454Z,11.08
2023-03-20T07:19:39.798Z,11.30
2023-03-20T07:22:09.352Z,11.44
2023-03-20T07:24:36.093Z,11.67
2023-03-20T07:27:05.139Z,11.67
2023-03-20T07:29:31.563Z,11.95
2023-03-20T07:32:01.158Z,12.12
2023-03-20T07:34:27.751Z,12.01
2023-03-20T07:36:56.860Z,11.96
2023-03-20T07:39:23.421Z,11.96
2023-03-20T07:41:49.979Z,12.08
2023-03-20T07:44:19.281Z,12.27
2023-03-20T07:46:49.680Z,12.28
2023-03-20T07:49:22.563Z,12.29
2023-03-20T07:51:50.250Z,12.01
2023-03-20T07:54:19.764Z,12.24
2023-03-20T07:56:48.505Z,12.36
2023-03-20T07:59:18.339Z,12.52
2023-03-20T08:01:49.707Z,12.72
2023-03-20T08:04:19.533Z,12.84
2023-03-20T08:06:48.607Z,12.88
2023-03-20T08:09:17.969Z,12.94
2023-03-20T08:11:44.639Z,13.17
2023-03-20T08:14:11.335Z,13.23
2023-03-20T08:16:38.043Z,13.37
2023-03-20T08:19:06.247Z,13.82
2023-03-20T08:21:33.501Z,13.77
2023-03-20T08:24:02.700Z,13.88
2023-03-20T08:26:31.742Z,13.98
2023-03-20T08:29:00.899Z,13.94
2023-03-20T08:31:27.719Z,13.90
2023-03-20T08:33:58.529Z,14.05
2023-03-20T08:36:25.298Z,14.17
2023-03-20T08:38:51.969Z,14.22
2023-03-20T08:41:19.076Z,14.29
2023-03-20T08:43:50.185Z,14.19
2023-03-20T08:46:19.058Z,13.92
2023-03-20T08:48:45.770Z,14.00
2023-03-20T08:51:12.374Z,14.18
2023-03-20T08:53:38.891Z,13.96
2023-03-20T08:56:06.312Z,14.05
2023-03-20T08:58:32.965Z,14.12
2023-03-20T09:01:07.046Z,14.29
2023-03-20T09:03:38.874Z,14.47
2023-03-20T09:06:07.414Z,14.62
2023-03-20T09:08:34.833Z,14.41
2023-03-20T09:11:08.210Z,14.56
2023-03-20T09:13:40.247Z,14.55
2023-03-20T09:16:07.349Z,14.66
2023-03-20T09:18:33.914Z,14.74
2023-03-20T09:21:00.546Z,14.66
2023-03-20T09:23:27.257Z,14.51
2023-03-20T09:25:53.895Z,14.65
2023-03-20T09:28:20.476Z,14.79
2023-03-20T09:30:54.690Z,14.84
2023-03-20T09:33:24.756Z,14.86
2023-03-20T09:35:51.462Z,14.94
2023-03-20T09:38:18.186Z,14.98
2023-03-20T09:40:54.073Z,15.09
2023-03-20T09:43:45.419Z,15.07
2023-03-20T09:46:42.970Z,15.24
2023-03-20T09:49:18.264Z,15.21
2023-03-20T09:52:10.433Z,15.24
2023-03-20T09:54:54.057Z,15.36
2023-03-20T09:57:29.874Z,15.48
2023-03-20T10:00:01.637Z,15.61
2023-03-20T10:02:52.456Z,15.70
2023-03-20T10:05:26.273Z,15.82
2023-03-20T10:08:01.242Z,15.84
2023-03-20T10:10:40.505Z,15.31
2023-03-20T10:13:45.575Z,15.61
2023-03-20T10:16:40.228Z,15.76
2023-03-20T10:19:22.488Z,15.93
2023-03-20T10:22:06.470Z,16.04
2023-03-20T10:24:39.207Z,16.09
2023-03-20T10:27:28.399Z,16.18
2023-03-20T10:30:13.089Z,16.31
2023-03-20T10:33:00.298Z,16.41
2023-03-20T10:35:47.231Z,16.45
2023-03-20T10:38:28.731Z,16.49
2023-03-20T10:40:59.055Z,16.69
2023-03-20T10:43:32.900Z,16.79
2023-03-20T10:46:06.119Z,16.72
2023-03-20T10:48:44.349Z,16.69
2023-03-20T10:51:21.549Z,16.86
2023-03-20T10:53:59.978Z,16.44
2023-03-20T10:56:39.245Z,16.32
2023-03-20T10:59:19.659Z,16.49
2023-03-20T11:01:46.219Z,16.40
2023-03-20T11:04:14.933Z,16.33
2023-03-20T11:06:59.781Z,16.21
2023-03-20T11:09:31.268Z,16.52
2023-03-20T11:11:59.554Z,16.73
2023-03-20T11:14:37.926Z,16.59
2023-03-20T11:17:07.179Z,16.74
2023-03-20T11:19:36.341Z,16.69
2023-03-20T11:22:28.826Z,17.08
2023-03-20T11:25:01.430Z,17.13
2023-03-20T11:27:33.260Z,17.14
2023-03-20T11:30:07.558Z,17.22
2023-03-20T11:32:46.615Z,17.22
2023-03-20T11:35:28.540Z,17.36
2023-03-20T11:38:13.872Z,17.11
2023-03-20T11:40:42.639Z,17.18
2023-03-20T11:43:22.096Z,16.96
2023-03-20T11:45:58.073Z,17.01
2023-03-20T11:48:48.866Z,17.14
2023-03-20T11:51:18.840Z,16.86
2023-03-20T11:53:48.444Z,16.98
2023-03-20T11:56:23.701Z,16.62
2023-03-20T11:59:01.954Z,16.48
2023-03-20T12:01:40.724Z,16.60
2023-03-20T12:04:12.687Z,16.75
2023-03-20T12:07:01.448Z,16.50
2023-03-20T12:09:42.993Z,16.69
2023-03-20T12:12:27.609Z,16.83
2023-03-20T12:15:04.255Z,17.13
2023-03-20T12:17:38.392Z,17.04
2023-03-20T12:20:34.640Z,17.14
2023-03-20T12:23:13.739Z,17.10
2023-03-20T12:25:52.457Z,17.26
2023-03-20T12:28:44.129Z,16.94
2023-03-20T12:31:25.427Z,16.57
2023-03-20T12:34:11.601Z,16.74
2023-03-20T12:36:44.164Z,16.62
2023-03-20T12:39:19.941Z,16.72
2023-03-20T12:41:55.602Z,16.79
2023-03-20T12:44:39.178Z,16.38
2023-03-20T12:47:10.952Z,16.08
2023-03-20T12:49:53.077Z,16.22
2023-03-20T12:52:46.519Z,16.53
2023-03-20T12:55:15.983Z,16.50
2023-03-20T12:58:16.699Z,16.29
2023-03-20T13:01:04.910Z,16.71
2023-03-20T13:03:59.921Z,16.54
2023-03-20T13:06:29.722Z,16.60
2023-03-20T13:09:01.941Z,16.61
2023-03-20T13:11:28.472Z,16.32
2023-03-20T13:14:01.113Z,16.50
2023-03-20T13:16:30.588Z,16.67
2023-03-20T13:19:07.961Z,16.72
2023-03-20T13:21:49.407Z,16.70
2023-03-20T13:24:27.851Z,17.02
2023-03-20T13:27:16.152Z,16.94
2023-03-20T13:29:53.118Z,16.74
2023-03-20T13:32:56.167Z,16.72
2023-03-20T13:35:37.873Z,16.89
2023-03-20T13:38:21.680Z,17.04
2023-03-20T13:40:55.312Z,17.32
2023-03-20T13:43:40.060Z,17.00
2023-03-20T13:46:12.268Z,17.25
2023-03-20T13:48:45.288Z,17.16
2023-03-20T13:51:35.758Z,16.84
2023-03-20T13:54:29.564Z,16.79
2023-03-20T13:57:22.203Z,16.45
2023-03-20T14:00:23.023Z,16.60
2023-03-20T14:03:26.362Z,16.86
2023-03-20T14:05:55.479Z,16.76
2023-03-20T14:08:22.023Z,16.59
2023-03-20T14:10:54.720Z,16.75
2023-03-20T14:13:26.089Z,16.79
2023-03-20T14:15:58.643Z,16.70
2023-03-20T14:18:26.537Z,16.82
2023-03-20T14:20:59.754Z,16.77
2023-03-20T14:23:35.560Z,16.80
2023-03-20T14:26:07.936Z,16.69
2023-03-20T14:28:46.288Z,16.51
2023-03-20T14:31:23.006Z,16.61
2023-03-20T14:34:08.516Z,16.90
2023-03-20T14:36:53.974Z,16.89
2023-03-20T14:39:28.424Z,16.77
2023-03-20T14:42:09.501Z,17.01
2023-03-20T14:44:50.033Z,16.90
2023-03-20T14:47:26.844Z,16.71
2023-03-20T14:50:12.112Z,16.86
2023-03-20T14:52:46.970Z,16.89
2023-03-20T14:55:31.395Z,16.76
2023-03-20T14:58:05.871Z,16.94
2023-03-20T15:00:46.074Z,17.07
2023-03-20T15:03:17.642Z,16.92
2023-03-20T15:05:47.469Z,16.97
2023-03-20T15:08:27.329Z,17.04
2023-03-20T15:10:57.418Z,16.90
2023-03-20T15:13:25.597Z,16.70
2023-03-20T15:16:05.246Z,16.96
2023-03-20T15:18:38.114Z,16.98
2023-03-20T15:21:21.323Z,16.74
2023-03-20T15:23:50.700Z,16.59
2023-03-20T15:26:22.310Z,16.58
2023-03-20T15:28:52.312Z,16.74
2023-03-20T15:31:30.087Z,16.89
2023-03-20T15:33:58.184Z,16.99
2023-03-20T15:36:30.289Z,16.75
2023-03-20T15:39:18.609Z,16.65
2023-03-20T15:41:55.299Z,16.58
2023-03-20T15:44:28.270Z,16.58
2023-03-20T15:47:03.613Z,16.74
2023-03-20T15:49:32.396Z,16.81
2023-03-20T15:52:06.943Z,16.63
2023-03-20T15:54:37.537Z,16.77
2023-03-20T15:57:06.085Z,16.58
2023-03-20T15:59:37.538Z,16.66
2023-03-20T16:02:13.485Z,16.72
2023-03-20T16:04:48.054Z,16.74
2023-03-20T16:07:28.868Z,16.69
2023-03-20T16:09:55.490Z,16.74
2023-03-20T16:12:26.733Z,16.79
2023-03-20T16:14:54.265Z,16.76
2023-03-20T16:17:26.774Z,16.41
2023-03-20T16:19:56.241Z,16.38
2023-03-20T16:22:32.507Z,16.56
2023-03-20T16:25:04.570Z,16.42
2023-03-20T16:27:38.661Z,16.17
2023-03-20T16:30:10.522Z,16.28
2023-03-20T16:32:39.313Z,16.30
2023-03-20T16:35:12.010Z,16.07
2023-03-20T16:37:48.592Z,16.29
2023-03-20T16:40:37.159Z,15.83
2023-03-20T16:43:28.468Z,15.87
2023-03-20T16:45:57.339Z,15.91
2023-03-20T16:48:26.629Z,15.84
2023-03-20T16:50:59.503Z,15.92
2023-03-20T16:53:31.235Z,15.88
2023-03-20T16:56:00.950Z,15.86
2023-03-20T16:58:32.626Z,15.88
2023-03-20T17:01:04.265Z,15.92
2023-03-20T17:03:38.284Z,15.85
2023-03-20T17:06:28.060Z,15.82
2023-03-20T17:08:59.750Z,15.54
2023-03-20T17:11:34.917Z,15.45
2023-03-20T17:14:04.494Z,15.44
2023-03-20T17:16:36.736Z,15.57
2023-03-20T17:19:13.603Z,15.61
2023-03-20T17:21:40.806Z,15.40
2023-03-20T17:24:15.045Z,15.27
2023-03-20T17:26:44.174Z,15.26
2023-03-20T17:29:12.120Z,15.06
2023-03-20T17:31:39.100Z,15.16
2023-03-20T17:34:05.997Z,15.30
2023-03-20T17:36:34.504Z,15.11
2023-03-20T17:39:01.589Z,15.25
2023-03-20T17:41:28.896Z,14.99
2023-03-20T17:43:58.099Z,14.96
2023-03-20T17:46:30.172Z,14.99
2023-03-20T17:49:04.340Z,15.03
2023-03-20T17:51:31.027Z,15.00
2023-03-20T17:54:02.438Z,15.02
2023-03-20T17:56:30.332Z,14.94
2023-03-20T17:58:57.524Z,14.89
2023-03-20T18:01:26.499Z,14.89
2023-03-20T18:03:53.576Z,14.93
2023-03-20T18:06:33.536Z,15.02
2023-03-20T18:09:08.907Z,14.93
2023-03-20T18:11:35.505Z,14.80
2023-03-20T18:14:02.166Z,14.85
2023-03-20T18:16:32.613Z,14.91
2023-03-20T18:19:02.681Z,14.90
2023-03-20T18:21:29.394Z,14.96
2023-03-20T18:23:55.958Z,15.02
2023-03-20T18:26:28.284Z,14.98
2023-03-20T18:29:00.287Z,14.82
2023-03-20T18:31:29.214Z,14.62
2023-03-20T18:33:55.654Z,14.78
2023-03-20T18:36:24.531Z,14.75
2023-03-20T18:38:53.642Z,14.85
2023-03-20T18:41:20.941Z,14.75
2023-03-20T18:43:48.241Z,14.71
2023-03-20T18:46:19.502Z,14.86
2023-03-20T18:48:47.014Z,14.88
2023-03-20T18:51:14.410Z,14.91
2023-03-20T18:53:41.598Z,14.97
2023-03-20T18:56:19.219Z,14.75
2023-03-20T18:58:49.484Z,14.82
2023-03-20T19:01:19.176Z,14.85
2023-03-20T19:03:46.913Z,14.68
2023-03-20T19:06:15.532Z,14.64
2023-03-20T19:08:45.377Z,14.66
2023-03-20T19:11:15.575Z,14.66
2023-03-20T19:13:47.315Z,14.60
2023-03-20T19:16:24.982Z,14.59
2023-03-20T19:18:56.219Z,14.50
2023-03-20T19:21:29.112Z,14.68
2023-03-20T19:23:57.684Z,14.50
2023-03-20T19:26:26.564Z,14.52
2023-03-20T19:28:59.213Z,14.56
2023-03-20T19:31:30.950Z,14.43
2023-03-20T19:33:57.674Z,14.57
2023-03-20T19:36:28.773Z,14.53
2023-03-20T19:38:56.770Z,14.43
2023-03-20T19:41:27.811Z,14.42
2023-03-20T19:43:57.719Z,14.44
2023-03-20T19:46:43.221Z,14.56
2023-03-20T19:49:21.420Z,14.54
2023-03-20T19:51:53.575Z,14.53
2023-03-20T19:54:25.584Z,14.47
2023-03-20T19:57:02.986Z,14.50
2023-03-20T19:59:32.828Z,14.40
2023-03-20T20:02:02.889Z,14.49
2023-03-20T20:04:36.985Z,14.47
2023-03-20T20:07:47.218Z,14.44
2023-03-20T20:10:01.371Z,14.45
2023-03-20T20:12:38.879Z,14.44
2023-03-20T20:19:46.635Z,14.50
2023-03-20T20:26:00.134Z,14.27
2023-03-20T20:39:27.282Z,14.32
2023-03-20T20:41:58.724Z,14.37
2023-03-20T20:44:27.904Z,14.37
2023-03-20T20:46:54.513Z,14.45
2023-03-20T20:49:23.551Z,14.47
2023-03-20T20:51:52.081Z,14.43
2023-03-20T20:54:19.157Z,14.34
2023-03-20T20:56:46.321Z,14.41
2023-03-20T20:59:18.080Z,14.38
2023-03-20T21:01:47.049Z,14.37
2023-03-20T21:04:13.696Z,14.37
2023-03-20T21:07:09.460Z,14.01
2023-03-20T21:09:29.379Z,13.87
2023-03-20T21:11:58.525Z,13.81
2023-03-20T21:14:25.328Z,13.83
2023-03-20T21:17:00.927Z,13.82
2023-03-20T21:19:29.467Z,13.84
2023-03-20T21:21:59.075Z,13.75
2023-03-20T21:24:34.037Z,13.71
2023-03-20T21:27:04.663Z,13.60
2023-03-20T21:29:33.766Z,13.77
2023-03-20T21:32:02.687Z,13.85
2023-03-20T21:34:29.315Z,13.72
2023-03-20T21:37:02.955Z,13.86
2023-03-20T21:39:56.369Z,13.77
2023-03-20T21:42:22.909Z,13.76
2023-03-20T21:46:06.647Z,13.61
2023-03-20T21:50:49.455Z,13.70
2023-03-20T21:54:07.529Z,13.61
2023-03-20T21:56:45.672Z,13.69
2023-03-20T21:59:27.004Z,13.76
2023-03-20T22:02:00.844Z,13.57
2023-03-20T22:05:09.825Z,13.63
2023-03-20T22:07:38.228Z,13.59
2023-03-20T22:16:05.668Z,13.52
2023-03-20T22:19:17.864Z,13.49
2023-03-20T22:21:48.510Z,13.46
2023-03-20T22:30:12.385Z,13.48
2023-03-20T22:32:56.399Z,13.54
2023-03-20T22:41:36.210Z,13.38
2023-03-20T22:49:07.630Z,13.21
2023-03-20T22:51:40.952Z,13.26
2023-03-20T22:54:10.849Z,13.20
2023-03-20T22:56:37.426Z,13.25
2023-03-20T22:59:04.908Z,13.25
2023-03-20T23:01:31.560Z,13.22
2023-03-20T23:03:58.145Z,13.26
2023-03-20T23:06:27.294Z,13.30
2023-03-20T23:08:58.429Z,13.31
2023-03-20T23:11:29.674Z,13.35
2023-03-20T23:14:01.221Z,13.30
2023-03-20T23:16:27.844Z,13.36
2023-03-20T23:18:54.904Z,13.32
2023-03-20T23:21:21.562Z,13.35
2023-03-20T23:23:48.139Z,13.40
2023-03-20T23:26:22.968Z,13.29
2023-03-20T23:28:52.707Z,13.25
2023-03-20T23:31:24.791Z,13.19
2023-03-20T23:33:56.408Z,13.30
2023-03-20T23:36:35.975Z,13.21
2023-03-20T23:39:09.320Z,13.25
2023-03-20T23:42:04.664Z,13.32
2023-03-20T23:44:28.493Z,13.25
2023-03-20T23:46:57.767Z,13.32
2023-03-20T23:49:27.934Z,13.28
2023-03-20T23:51:59.492Z,13.31
2023-03-20T23:54:31.031Z,13.43
2023-03-20T23:56:57.599Z,13.31
2023-03-20T23:59:28.910Z,13.28
